createdAt,value
2023-02-24T00:02:06.333Z,50362.77
2023-02-24T00:04:39.920Z,50387.56
2023-02-24T00:07:10.808Z,50360.77
2023-02-24T00:09:39.712Z,50367.57
2023-02-24T00:12:13.725Z,50371.96
2023-02-24T00:14:44.374Z,50363.97
2023-02-24T00:17:16.617Z,50368.37
2023-02-24T00:19:46.644Z,50371.17
2023-02-24T00:22:14.955Z,50363.17
2023-02-24T00:24:43.132Z,50378.77
2023-02-24T00:27:12.422Z,50365.17
2023-02-24T00:29:42.403Z,50373.17
2023-02-24T00:32:13.648Z,50351.57
2023-02-24T00:34:43.665Z,50375.97
2023-02-24T00:37:12.371Z,50381.56
2023-02-24T00:39:44.599Z,50375.57
2023-02-24T00:42:13.070Z,50352.77
2023-02-24T00:44:46.587Z,50361.17
2023-02-24T00:47:17.211Z,50361.97
2023-02-24T00:49:46.144Z,50375.17
2023-02-24T00:52:18.389Z,50363.97
2023-02-24T00:54:49.315Z,50368.77
2023-02-24T00:57:21.759Z,50358.38
2023-02-24T00:59:54.806Z,50369.97
2023-02-24T01:02:23.128Z,50355.18
2023-02-24T01:04:52.109Z,50380.76
2023-02-24T01:07:21.175Z,50358.77
2023-02-24T01:09:51.037Z,50361.18
2023-02-24T01:12:22.034Z,50379.57
2023-02-24T01:14:53.472Z,50357.17
2023-02-24T01:17:24.503Z,50366.37
2023-02-24T01:19:53.172Z,50378.77
2023-02-24T01:22:24.716Z,50345.57
2023-02-24T01:24:53.758Z,50366.37
2023-02-24T01:27:22.307Z,50384.36
2023-02-24T01:29:50.682Z,50378.37
2023-02-24T01:32:21.715Z,50357.18
2023-02-24T01:34:53.441Z,50369.57
2023-02-24T01:37:22.090Z,50371.97
2023-02-24T01:39:51.356Z,50372.77
2023-02-24T01:42:21.887Z,50374.77
2023-02-24T01:44:52.348Z,50369.17
2023-02-24T01:47:21.473Z,50369.57
2023-02-24T01:49:54.298Z,50360.77
2023-02-24T01:52:28.247Z,50379.96
2023-02-24T01:55:03.216Z,50355.98
2023-02-24T01:57:35.745Z,50379.56
2023-02-24T02:00:11.947Z,50375.97
2023-02-24T02:02:47.623Z,50373.57
2023-02-24T02:05:16.372Z,50374.37
2023-02-24T02:07:46.100Z,50377.57
2023-02-24T02:10:14.432Z,50369.57
2023-02-24T02:12:46.832Z,50360.37
2023-02-24T02:15:21.317Z,50349.57
2023-02-24T02:18:25.419Z,50370.37
2023-02-24T02:21:09.957Z,50361.97
2023-02-24T02:23:50.072Z,50357.17
2023-02-24T02:26:49.222Z,50356.38
2023-02-24T02:29:29.403Z,50364.37
2023-02-24T02:32:41.131Z,50354.77
2023-02-24T02:35:09.512Z,50355.98
2023-02-24T02:37:56.463Z,50369.57
2023-02-24T02:40:33.309Z,50372.37
2023-02-24T02:43:19.671Z,50383.57
2023-02-24T02:45:58.115Z,50373.16
2023-02-24T02:48:41.393Z,50387.16
2023-02-24T02:51:13.558Z,50377.96
2023-02-24T02:54:01.326Z,50376.37
2023-02-24T02:56:47.258Z,50370.37
2023-02-24T02:59:23.462Z,50381.96
2023-02-24T03:02:01.300Z,50364.37
2023-02-24T03:04:30.393Z,50389.16
2023-02-24T03:07:03.673Z,50385.16
2023-02-24T03:09:40.048Z,50368.37
2023-02-24T03:12:13.500Z,50363.97
2023-02-24T03:14:52.071Z,50353.57
2023-02-24T03:17:24.501Z,50377.16
2023-02-24T03:20:13.229Z,50358.77
2023-02-24T03:22:47.297Z,50377.56
2023-02-24T03:25:17.079Z,50373.57
2023-02-24T03:28:01.895Z,50355.57
2023-02-24T03:31:00.108Z,50369.97
2023-02-24T03:33:40.049Z,50361.98
2023-02-24T03:36:09.000Z,50354.77
2023-02-24T03:38:38.732Z,50379.96
2023-02-24T03:41:11.572Z,50375.96
2023-02-24T03:43:45.166Z,50369.57
2023-02-24T03:46:17.212Z,50377.96
2023-02-24T03:48:57.892Z,50378.37
2023-02-24T03:51:27.806Z,50367.57
2023-02-24T03:54:20.618Z,50366.37
2023-02-24T03:57:02.106Z,50365.57
2023-02-24T03:59:50.127Z,50369.97
2023-02-24T04:02:26.177Z,50377.16
2023-02-24T04:05:01.838Z,50376.76
2023-02-24T04:08:12.459Z,50365.17
2023-02-24T04:10:56.172Z,50377.96
2023-02-24T04:13:38.636Z,50355.17
2023-02-24T04:16:36.601Z,50367.17
2023-02-24T04:19:10.159Z,50372.37
2023-02-24T04:21:40.327Z,50355.17
2023-02-24T04:24:16.057Z,50364.77
2023-02-24T04:26:46.700Z,50347.18
2023-02-24T04:29:20.686Z,50368.77
2023-02-24T04:31:55.092Z,50349.18
2023-02-24T04:34:24.141Z,50355.97
2023-02-24T04:36:52.785Z,50364.37
2023-02-24T04:39:23.546Z,50357.17
2023-02-24T04:41:54.895Z,50368.77
2023-02-24T04:44:23.715Z,50351.97
2023-02-24T04:46:52.353Z,50367.17
2023-02-24T04:49:20.824Z,50380.37
2023-02-24T04:51:49.431Z,50355.18
2023-02-24T04:54:20.139Z,50365.97
2023-02-24T04:56:51.135Z,50356.37
2023-02-24T04:59:21.168Z,50372.77
2023-02-24T05:01:53.324Z,50355.98
2023-02-24T05:04:21.531Z,50358.38
2023-02-24T05:06:49.754Z,50360.77
2023-02-24T05:09:18.351Z,50373.96
2023-02-24T05:11:51.537Z,50367.17
2023-02-24T05:14:21.391Z,50350.38
2023-02-24T05:16:50.495Z,50366.77
2023-02-24T05:19:39.646Z,50353.17
2023-02-24T05:22:10.036Z,50350.77
2023-02-24T05:24:38.751Z,50368.37
2023-02-24T05:27:07.172Z,50361.57
2023-02-24T05:29:35.878Z,50361.57
2023-02-24T05:32:05.857Z,50368.37
2023-02-24T05:34:34.503Z,50359.18
2023-02-24T05:37:10.315Z,50354.77
2023-02-24T05:39:38.596Z,50361.57
2023-02-24T05:42:07.327Z,50366.77
2023-02-24T05:44:36.449Z,50360.77
2023-02-24T05:47:05.902Z,50363.97
2023-02-24T05:49:35.419Z,50363.18
2023-02-24T05:52:10.309Z,50356.37
2023-02-24T05:54:41.588Z,50372.37
2023-02-24T05:57:17.217Z,50360.77
2023-02-24T05:59:46.917Z,50366.37
2023-02-24T06:02:28.046Z,50356.77
2023-02-24T06:04:59.036Z,50354.77
2023-02-24T06:07:29.122Z,50375.96
2023-02-24T06:10:00.398Z,50341.58
2023-02-24T06:12:34.011Z,50365.17
2023-02-24T06:15:07.893Z,50354.77
2023-02-24T06:17:38.239Z,50366.77
2023-02-24T06:20:16.046Z,50363.17
2023-02-24T06:22:44.421Z,50364.37
2023-02-24T06:25:12.892Z,50344.78
2023-02-24T06:27:43.523Z,50359.18
2023-02-24T06:30:12.847Z,50354.77
2023-02-24T06:32:41.373Z,50342.38
2023-02-24T06:35:10.600Z,50338.38
2023-02-24T06:37:39.730Z,50350.38
2023-02-24T06:40:16.076Z,50341.18
2023-02-24T06:42:49.399Z,50343.18
2023-02-24T06:45:17.731Z,50343.18
2023-02-24T06:47:49.033Z,50342.38
2023-02-24T06:50:20.442Z,50342.77
2023-02-24T06:52:49.284Z,50351.98
2023-02-24T06:55:27.726Z,50345.58
2023-02-24T06:57:58.936Z,50323.18
2023-02-24T07:00:39.143Z,50343.98
2023-02-24T07:03:15.714Z,50323.59
2023-02-24T07:05:54.592Z,50338.77
2023-02-24T07:08:27.595Z,50352.38
2023-02-24T07:10:58.344Z,50343.98
2023-02-24T07:13:30.750Z,50342.38
2023-02-24T07:16:07.470Z,50328.78
2023-02-24T07:18:40.901Z,50323.59
2023-02-24T07:21:16.430Z,50333.18
2023-02-24T07:23:46.173Z,50340.78
2023-02-24T07:26:17.505Z,50337.98
2023-02-24T07:28:48.213Z,50337.98
2023-02-24T07:31:19.394Z,50332.78
2023-02-24T07:33:48.458Z,50334.78
2023-02-24T07:36:24.789Z,50343.58
2023-02-24T07:38:54.653Z,50319.98
2023-02-24T07:41:23.920Z,50331.18
2023-02-24T07:43:54.082Z,50332.38
2023-02-24T07:46:28.218Z,50341.18
2023-02-24T07:48:59.476Z,50330.38
2023-02-24T07:51:29.533Z,50321.18
2023-02-24T07:53:59.684Z,50323.98
2023-02-24T07:56:29.410Z,50313.99
2023-02-24T07:59:02.862Z,50327.18
2023-02-24T08:01:39.202Z,50339.57
2023-02-24T08:04:09.157Z,50312.79
2023-02-24T08:06:46.082Z,50321.18
2023-02-24T08:09:18.933Z,50323.98
2023-02-24T08:11:55.737Z,50326.79
2023-02-24T08:14:32.919Z,50327.98
2023-02-24T08:17:07.324Z,50305.19
2023-02-24T08:19:42.363Z,50312.79
2023-02-24T08:22:24.314Z,50317.18
2023-02-24T08:25:06.466Z,50315.98
2023-02-24T08:27:39.231Z,50327.58
2023-02-24T08:30:09.545Z,50298.79
2023-02-24T08:32:47.084Z,50291.20
2023-02-24T08:35:23.275Z,50310.39
2023-02-24T08:37:56.191Z,50298.39
2023-02-24T08:40:34.268Z,50315.18
2023-02-24T08:43:16.330Z,50310.38
2023-02-24T08:45:51.731Z,50307.59
2023-02-24T08:48:38.802Z,50323.58
2023-02-24T08:51:18.149Z,50315.19
2023-02-24T08:53:47.324Z,50291.20
2023-02-24T08:56:24.387Z,50296.39
2023-02-24T08:59:05.638Z,50328.38
2023-02-24T09:01:43.258Z,50303.19
2023-02-24T09:04:19.408Z,50295.59
2023-02-24T09:06:53.784Z,50311.19
2023-02-24T09:09:24.745Z,50304.39
2023-02-24T09:11:57.130Z,50295.19
2023-02-24T09:14:36.676Z,50305.19
2023-02-24T09:17:11.405Z,50300.79
2023-02-24T09:19:51.029Z,50305.99
2023-02-24T09:22:33.050Z,50295.20
2023-02-24T09:25:24.297Z,50303.59
2023-02-24T09:27:56.273Z,50299.19
2023-02-24T09:30:39.016Z,50305.19
2023-02-24T09:33:21.368Z,50293.59
2023-02-24T09:36:10.422Z,50278.00
2023-02-24T09:39:00.061Z,50298.79
2023-02-24T09:41:56.893Z,50284.00
2023-02-24T09:44:34.976Z,50290.39
2023-02-24T09:47:40.264Z,50288.39
2023-02-24T09:50:46.951Z,50303.19
2023-02-24T09:53:17.596Z,50286.39
2023-02-24T09:55:46.342Z,50291.20
2023-02-24T09:58:48.170Z,50312.39
2023-02-24T10:01:36.065Z,50293.99
2023-02-24T10:04:21.072Z,50277.20
2023-02-24T10:07:15.705Z,50292.79
2023-02-24T10:09:51.754Z,50303.99
2023-02-24T10:12:30.712Z,50299.99
2023-02-24T10:15:20.247Z,50285.60
2023-02-24T10:17:55.712Z,50296.79
2023-02-24T10:20:40.996Z,50302.39
2023-02-24T10:23:33.153Z,50297.59
2023-02-24T10:26:31.808Z,50275.60
2023-02-24T10:29:09.475Z,50287.60
2023-02-24T10:31:48.767Z,50294.39
2023-02-24T10:34:21.592Z,50290.39
2023-02-24T10:36:51.556Z,50290.39
2023-02-24T10:39:26.335Z,50289.59
2023-02-24T10:42:16.919Z,50281.20
2023-02-24T10:45:02.487Z,50290.39
2023-02-24T10:47:32.348Z,50284.00
2023-02-24T10:50:04.177Z,50291.19
2023-02-24T10:52:59.396Z,50307.19
2023-02-24T10:55:45.958Z,50296.39
2023-02-24T10:58:38.086Z,50310.39
2023-02-24T11:01:40.852Z,50298.39
2023-02-24T11:04:45.348Z,50287.99
2023-02-24T11:07:24.822Z,50301.19
2023-02-24T11:10:15.092Z,50307.59
2023-02-24T11:13:10.349Z,50308.79
2023-02-24T11:16:12.796Z,50317.18
2023-02-24T11:18:50.184Z,50295.59
2023-02-24T11:21:19.917Z,50326.38
2023-02-24T11:23:53.758Z,50305.19
2023-02-24T11:26:33.197Z,50305.19
2023-02-24T11:29:32.714Z,50344.77
2023-02-24T11:32:06.743Z,50322.38
2023-02-24T11:34:49.628Z,50333.98
2023-02-24T11:37:40.668Z,50323.58
2023-02-24T11:40:23.955Z,50319.98
2023-02-24T11:43:03.389Z,50341.98
2023-02-24T11:45:43.628Z,50335.98
2023-02-24T11:48:16.186Z,50328.78
2023-02-24T11:50:52.023Z,50334.38
2023-02-24T11:53:25.805Z,50327.58
2023-02-24T11:56:03.104Z,50328.38
2023-02-24T11:58:54.656Z,50322.38
2023-02-24T12:01:33.434Z,50342.38
2023-02-24T12:04:07.430Z,50328.78
2023-02-24T12:06:48.526Z,50335.18
2023-02-24T12:09:22.353Z,50323.58
2023-02-24T12:11:59.817Z,50322.78
2023-02-24T12:14:34.844Z,50335.18
2023-02-24T12:17:18.461Z,50325.58
2023-02-24T12:19:57.695Z,50330.78
2023-02-24T12:22:50.858Z,50315.59
2023-02-24T12:25:25.562Z,50325.98
2023-02-24T12:28:05.755Z,50325.18
2023-02-24T12:31:14.260Z,50335.18
2023-02-24T12:33:49.702Z,50319.19
2023-02-24T12:36:37.785Z,50329.58
2023-02-24T12:39:20.766Z,50324.79
2023-02-24T12:42:29.418Z,50339.57
2023-02-24T12:44:59.274Z,50339.98
2023-02-24T12:47:43.381Z,50331.58
2023-02-24T12:50:41.025Z,50337.58
2023-02-24T12:53:28.512Z,50329.58
2023-02-24T12:56:02.674Z,50327.58
2023-02-24T12:58:39.189Z,50334.38
2023-02-24T13:01:29.930Z,50325.98
2023-02-24T13:04:35.498Z,50346.38
2023-02-24T13:07:04.374Z,50329.18
2023-02-24T13:10:07.086Z,50326.78
2023-02-24T13:13:06.815Z,50329.98
2023-02-24T13:15:36.260Z,50335.58
2023-02-24T13:18:05.715Z,50321.18
2023-02-24T13:20:37.498Z,50325.18
2023-02-24T13:23:21.600Z,50325.59
2023-02-24T13:25:55.806Z,50335.18
2023-02-24T13:28:36.409Z,50319.59
2023-02-24T13:31:10.631Z,50324.38
2023-02-24T13:33:41.730Z,50317.18
2023-02-24T13:36:22.023Z,50337.18
2023-02-24T13:39:08.239Z,50319.98
2023-02-24T13:41:41.013Z,50327.18
2023-02-24T13:44:18.614Z,50333.98
2023-02-24T13:47:13.134Z,50327.58
2023-02-24T13:50:19.116Z,50328.38
2023-02-24T13:52:57.216Z,50333.58
2023-02-24T13:55:30.149Z,50335.18
2023-02-24T13:58:19.816Z,50343.57
2023-02-24T14:01:04.666Z,50322.78
2023-02-24T14:03:34.561Z,50329.18
2023-02-24T14:06:04.421Z,50327.58
2023-02-24T14:08:35.557Z,50340.78
2023-02-24T14:11:04.245Z,50331.98
2023-02-24T14:13:34.436Z,50343.58
2023-02-24T14:16:08.890Z,50329.58
2023-02-24T14:18:37.823Z,50329.98
2023-02-24T14:21:06.371Z,50346.77
2023-02-24T14:23:35.518Z,50332.38
2023-02-24T14:26:14.082Z,50334.38
2023-02-24T14:28:42.675Z,50335.98
2023-02-24T14:31:15.442Z,50321.58
2023-02-24T14:33:45.684Z,50350.38
2023-02-24T14:36:20.894Z,50336.78
2023-02-24T14:39:12.515Z,50348.38
2023-02-24T14:41:41.015Z,50353.57
2023-02-24T14:44:18.972Z,50335.98
2023-02-24T14:46:56.739Z,50359.57
2023-02-24T14:49:28.074Z,50347.18
2023-02-24T14:52:21.306Z,50350.38
2023-02-24T14:55:16.028Z,50339.98
2023-02-24T14:58:01.380Z,50356.37
2023-02-24T15:00:48.446Z,50347.98
2023-02-24T15:03:25.549Z,50342.38
2023-02-24T15:05:57.655Z,50341.98
2023-02-24T15:08:35.231Z,50342.38
2023-02-24T15:11:18.594Z,50335.98
2023-02-24T15:13:49.047Z,50349.57
2023-02-24T15:16:22.299Z,50350.77
2023-02-24T15:18:53.170Z,50348.77
2023-02-24T15:21:29.129Z,50345.98
2023-02-24T15:24:02.212Z,50346.38
2023-02-24T15:26:35.587Z,50334.38
2023-02-24T15:29:15.409Z,50344.77
2023-02-24T15:31:48.416Z,50357.57
2023-02-24T15:34:23.827Z,50346.38
2023-02-24T15:36:56.840Z,50347.18
2023-02-24T15:39:31.305Z,50356.37
2023-02-24T15:42:07.369Z,50358.37
2023-02-24T15:44:36.983Z,50362.77
2023-02-24T15:47:25.283Z,50360.77
2023-02-24T15:49:54.624Z,50359.97
2023-02-24T15:52:28.712Z,50367.17
2023-02-24T15:55:00.654Z,50360.77
2023-02-24T15:57:34.218Z,50372.77
2023-02-24T16:00:13.396Z,50356.38
2023-02-24T16:02:42.377Z,50368.77
2023-02-24T16:05:14.191Z,50351.98
2023-02-24T16:07:45.425Z,50367.97
2023-02-24T16:10:24.571Z,50368.37
2023-02-24T16:12:58.507Z,50370.77
2023-02-24T16:15:45.901Z,50345.57
2023-02-24T16:18:21.929Z,50376.76
2023-02-24T16:20:55.366Z,50387.96
2023-02-24T16:23:26.809Z,50360.37
2023-02-24T16:25:57.996Z,50363.97
2023-02-24T16:28:29.212Z,50369.57
2023-02-24T16:30:57.474Z,50366.77
2023-02-24T16:33:26.123Z,50377.17
2023-02-24T16:35:54.996Z,50367.17
2023-02-24T16:38:26.929Z,50361.97
2023-02-24T16:40:56.088Z,50365.57
2023-02-24T16:43:25.202Z,50335.18
2023-02-24T16:45:55.787Z,50364.77
2023-02-24T16:48:26.933Z,50373.97
2023-02-24T16:50:55.409Z,50375.57
2023-02-24T16:53:25.297Z,50374.77
2023-02-24T16:55:56.105Z,50358.38
2023-02-24T16:58:25.867Z,50363.17
2023-02-24T17:00:59.276Z,50372.77
2023-02-24T17:03:44.444Z,50386.76
2023-02-24T17:06:13.496Z,50359.98
2023-02-24T17:08:43.919Z,50371.96
2023-02-24T17:11:22.135Z,50374.77
2023-02-24T17:13:50.512Z,50359.18
2023-02-24T17:16:18.761Z,50365.97
2023-02-24T17:18:46.968Z,50386.36
2023-02-24T17:21:17.027Z,50363.57
2023-02-24T17:23:45.291Z,50385.16
2023-02-24T17:26:15.557Z,50352.38
2023-02-24T17:28:44.256Z,50380.77
2023-02-24T17:31:12.609Z,50369.57
2023-02-24T17:33:41.763Z,50354.77
2023-02-24T17:36:10.016Z,50372.37
2023-02-24T17:38:39.586Z,50361.17
2023-02-24T17:41:08.116Z,50382.36
2023-02-24T17:43:36.314Z,50373.17
2023-02-24T17:46:07.080Z,50381.96
2023-02-24T17:48:35.963Z,50378.37
2023-02-24T17:51:04.227Z,50371.96
2023-02-24T17:53:33.889Z,50371.97
2023-02-24T17:56:06.444Z,50373.57
2023-02-24T17:58:36.723Z,50379.57
2023-02-24T18:01:09.671Z,50381.96
2023-02-24T18:03:38.208Z,50377.57
2023-02-24T18:06:12.100Z,50366.37
2023-02-24T18:08:41.011Z,50379.16
2023-02-24T18:11:14.271Z,50381.56
2023-02-24T18:13:43.493Z,50370.77
2023-02-24T18:16:14.968Z,50391.96
2023-02-24T18:18:43.316Z,50379.17
2023-02-24T18:21:11.725Z,50377.57
2023-02-24T18:23:40.823Z,50374.37
2023-02-24T18:26:12.971Z,50391.56
2023-02-24T18:28:42.049Z,50382.37
2023-02-24T18:31:19.193Z,50381.16
2023-02-24T18:33:51.359Z,50380.76
2023-02-24T18:36:20.202Z,50381.96
2023-02-24T18:38:48.955Z,50378.77
2023-02-24T18:41:23.649Z,50380.77
2023-02-24T18:43:57.442Z,50394.76
2023-02-24T18:46:27.182Z,50377.96
2023-02-24T18:48:56.967Z,50397.56
2023-02-24T18:51:29.293Z,50378.37
2023-02-24T18:54:03.092Z,50375.17
2023-02-24T18:56:34.768Z,50371.16
2023-02-24T18:59:03.971Z,50394.36
2023-02-24T19:01:35.847Z,50391.96
2023-02-24T19:04:06.588Z,50396.76
2023-02-24T19:06:36.509Z,50386.36
2023-02-24T19:09:10.962Z,50390.36
2023-02-24T19:11:40.484Z,50385.96
2023-02-24T19:14:11.960Z,50373.16
2023-02-24T19:16:41.257Z,50388.36
2023-02-24T19:19:14.062Z,50377.97
2023-02-24T19:21:45.604Z,50389.16
2023-02-24T19:24:14.683Z,50382.77
2023-02-24T19:26:44.556Z,50400.76
2023-02-24T19:29:12.889Z,50391.96
2023-02-24T19:31:41.498Z,50373.57
2023-02-24T19:34:12.180Z,50392.76
2023-02-24T19:36:41.548Z,50395.96
2023-02-24T19:39:13.361Z,50397.56
2023-02-24T19:41:42.332Z,50388.76
2023-02-24T19:44:11.317Z,50391.56
2023-02-24T19:46:40.686Z,50395.96
2023-02-24T19:49:09.096Z,50392.76
2023-02-24T19:51:37.586Z,50394.36
2023-02-24T19:54:08.597Z,50407.16
2023-02-24T19:56:37.511Z,50385.56
2023-02-24T19:59:07.309Z,50400.76
2023-02-24T20:01:35.670Z,50385.96
2023-02-24T20:04:04.923Z,50397.96
2023-02-24T20:06:36.647Z,50395.16
2023-02-24T20:09:10.683Z,50394.36
2023-02-24T20:11:39.867Z,50392.36
2023-02-24T20:14:10.607Z,50376.77
2023-02-24T20:16:40.746Z,50392.76
2023-02-24T20:19:11.667Z,50398.76
2023-02-24T20:21:41.058Z,50396.76
2023-02-24T20:24:13.716Z,50383.56
2023-02-24T20:26:47.320Z,50389.57
2023-02-24T20:29:17.812Z,50401.56
2023-02-24T20:31:46.610Z,50394.36
2023-02-24T20:34:16.925Z,50386.77
2023-02-24T20:36:45.667Z,50369.57
2023-02-24T20:39:14.036Z,50407.55
2023-02-24T20:41:42.883Z,50388.76
2023-02-24T20:44:12.542Z,50393.16
2023-02-24T20:46:41.140Z,50391.16
2023-02-24T20:49:12.904Z,50399.96
2023-02-24T20:51:42.157Z,50395.96
2023-02-24T20:54:12.785Z,50387.56
2023-02-24T20:56:43.114Z,50392.76
2023-02-24T20:59:15.236Z,50399.56
2023-02-24T21:01:47.345Z,50393.56
2023-02-24T21:04:19.553Z,50400.76
2023-02-24T21:06:51.650Z,50400.36
2023-02-24T21:09:19.862Z,50401.96
2023-02-24T21:11:48.245Z,50398.36
2023-02-24T21:14:17.533Z,50407.96
2023-02-24T21:16:47.054Z,50400.36
2023-02-24T21:19:17.924Z,50406.76
2023-02-24T21:21:46.229Z,50399.56
2023-02-24T21:24:14.627Z,50413.55
2023-02-24T21:26:42.877Z,50411.96
2023-02-24T21:29:11.049Z,50396.76
2023-02-24T21:31:39.524Z,50423.95
2023-02-24T21:34:11.589Z,50403.16
2023-02-24T21:36:39.740Z,50403.16
2023-02-24T21:39:08.065Z,50413.96
2023-02-24T21:41:36.293Z,50400.36
2023-02-24T21:44:05.187Z,50406.76
2023-02-24T21:46:33.462Z,50388.37
2023-02-24T21:49:01.749Z,50399.16
2023-02-24T21:51:30.727Z,50408.76
2023-02-24T21:53:59.238Z,50407.16
2023-02-24T21:56:29.610Z,50417.95
2023-02-24T21:59:03.718Z,50412.36
2023-02-24T22:01:38.302Z,50407.96
2023-02-24T22:04:10.201Z,50397.96
2023-02-24T22:06:40.050Z,50411.96
2023-02-24T22:09:10.412Z,50429.15
2023-02-24T22:11:43.836Z,50409.55
2023-02-24T22:14:13.948Z,50414.76
2023-02-24T22:16:42.905Z,50412.76
2023-02-24T22:19:11.854Z,50393.56
2023-02-24T22:21:42.753Z,50401.16
2023-02-24T22:24:14.093Z,50426.35
2023-02-24T22:26:43.364Z,50421.15
2023-02-24T22:29:12.230Z,50404.76
2023-02-24T22:31:43.835Z,50403.96
2023-02-24T22:34:14.976Z,50423.55
2023-02-24T22:36:43.439Z,50399.56
2023-02-24T22:39:16.687Z,50403.16
2023-02-24T22:41:46.926Z,50399.56
2023-02-24T22:44:19.358Z,50412.35
2023-02-24T22:46:48.549Z,50398.36
2023-02-24T22:49:16.953Z,50438.75
2023-02-24T22:51:45.960Z,50407.96
2023-02-24T22:54:14.752Z,50409.96
2023-02-24T22:56:43.009Z,50404.76
2023-02-24T22:59:12.145Z,50393.56
2023-02-24T23:01:43.800Z,50415.55
2023-02-24T23:04:16.384Z,50432.35
2023-02-24T23:06:44.903Z,50424.35
2023-02-24T23:09:14.224Z,50416.35
2023-02-24T23:11:42.436Z,50415.55
2023-02-24T23:14:16.700Z,50427.55
2023-02-24T23:16:47.505Z,50409.55
2023-02-24T23:19:18.239Z,50417.15
2023-02-24T23:21:52.850Z,50421.95
2023-02-24T23:24:22.423Z,50415.55
2023-02-24T23:26:57.872Z,50414.76
2023-02-24T23:29:27.786Z,50429.55
2023-02-24T23:31:56.266Z,50401.56
2023-02-24T23:34:25.539Z,50420.35
2023-02-24T23:36:53.771Z,50423.55
2023-02-24T23:39:24.001Z,50431.15
2023-02-24T23:41:57.553Z,50420.35
2023-02-24T23:44:26.449Z,50424.35
2023-02-24T23:46:58.391Z,50408.76
2023-02-24T23:49:36.069Z,50431.15
2023-02-24T23:52:13.785Z,50417.16
2023-02-24T23:54:42.174Z,50422.36
2023-02-24T23:57:10.364Z,50418.36
2023-02-24T23:59:40.030Z,50421.15
